createdAt,value
2022-09-09T00:03:08.312Z,21.00
2022-09-09T00:07:44.364Z,21.10
2022-09-09T00:11:57.343Z,21.10
2022-09-09T00:16:20.318Z,21.10
2022-09-09T00:21:03.977Z,21.10
2022-09-09T00:25:20.140Z,21.10
2022-09-09T00:29:56.509Z,21.20
2022-09-09T00:34:17.442Z,21.20
2022-09-09T00:38:42.458Z,21.30
2022-09-09T00:42:47.054Z,21.30
2022-09-09T00:47:17.781Z,21.30
2022-09-09T00:51:31.308Z,21.30
2022-09-09T00:56:12.423Z,21.30
2022-09-09T01:00:22.593Z,21.40
2022-09-09T01:04:35.124Z,21.40
2022-09-09T01:09:14.406Z,21.40
2022-09-09T01:13:37.439Z,21.30
2022-09-09T01:18:02.574Z,21.30
2022-09-09T01:22:42.604Z,21.30
2022-09-09T01:26:47.173Z,21.30
2022-09-09T01:31:01.514Z,21.20
2022-09-09T01:35:35.175Z,21.20
2022-09-09T01:39:42.944Z,21.30
2022-09-09T01:43:48.660Z,21.30
2022-09-09T01:47:54.218Z,21.30
2022-09-09T01:52:13.045Z,21.30
2022-09-09T01:56:34.433Z,21.30
2022-09-09T02:00:41.799Z,21.30
2022-09-09T02:04:49.196Z,21.40
2022-09-09T02:08:58.698Z,21.30
2022-09-09T02:13:17.200Z,21.30
2022-09-09T02:17:28.691Z,21.30
2022-09-09T02:21:46.093Z,21.20
2022-09-09T02:25:52.936Z,21.10
2022-09-09T02:30:03.154Z,21.20
2022-09-09T02:34:21.466Z,21.20
2022-09-09T02:38:30.069Z,21.10
2022-09-09T02:42:44.225Z,21.10
2022-09-09T02:47:04.541Z,21.10
2022-09-09T02:51:14.716Z,21.10
2022-09-09T02:55:30.393Z,21.10
2022-09-09T02:59:35.630Z,21.10
2022-09-09T03:03:39.136Z,21.00
2022-09-09T03:07:46.271Z,21.00
2022-09-09T03:11:50.771Z,21.00
2022-09-09T03:15:54.690Z,21.00
2022-09-09T03:19:59.742Z,21.00
2022-09-09T03:24:04.395Z,21.00
2022-09-09T03:28:07.578Z,21.00
2022-09-09T03:32:11.711Z,21.00
2022-09-09T03:36:16.595Z,21.00
2022-09-09T03:40:20.532Z,20.90
2022-09-09T03:44:23.428Z,20.80
2022-09-09T03:48:28.997Z,20.80
2022-09-09T03:52:32.465Z,20.90
2022-09-09T03:56:36.353Z,20.80
2022-09-09T04:00:43.322Z,20.80
2022-09-09T04:04:46.543Z,20.90
2022-09-09T04:08:53.343Z,20.80
2022-09-09T04:12:56.731Z,20.90
2022-09-09T04:17:00.593Z,21.00
2022-09-09T04:21:04.635Z,21.00
2022-09-09T04:25:09.143Z,21.00
2022-09-09T04:29:12.169Z,21.00
2022-09-09T04:33:16.333Z,21.00
2022-09-09T04:37:19.199Z,21.00
2022-09-09T04:41:22.135Z,21.10
2022-09-09T04:45:28.273Z,21.10
2022-09-09T04:49:32.642Z,21.10
2022-09-09T04:53:35.756Z,21.10
2022-09-09T04:57:39.128Z,21.10
2022-09-09T05:01:42.182Z,21.20
2022-09-09T05:05:45.985Z,21.20
2022-09-09T05:09:50.416Z,21.20
2022-09-09T05:13:54.019Z,21.20
2022-09-09T05:18:01.591Z,21.30
2022-09-09T05:22:06.469Z,21.30
2022-09-09T05:26:19.669Z,21.20
2022-09-09T05:30:27.365Z,21.00
2022-09-09T05:34:31.085Z,20.90
2022-09-09T05:38:35.253Z,20.90
2022-09-09T05:42:38.269Z,20.70
2022-09-09T05:46:41.417Z,20.70
2022-09-09T05:50:45.527Z,20.60
2022-09-09T05:54:50.349Z,20.60
2022-09-09T05:58:57.468Z,20.80
2022-09-09T06:03:01.137Z,20.80
2022-09-09T06:07:04.035Z,20.90
2022-09-09T06:11:18.958Z,20.90
2022-09-09T06:15:22.253Z,20.80
2022-09-09T06:19:27.450Z,20.80
2022-09-09T06:23:33.272Z,21.00
2022-09-09T06:27:36.166Z,21.20
2022-09-09T06:31:39.381Z,21.50
2022-09-09T06:35:58.263Z,21.70
2022-09-09T06:40:01.765Z,22.00
2022-09-09T06:44:05.730Z,22.20
2022-09-09T06:48:16.133Z,22.50
2022-09-09T06:52:19.275Z,22.70
2022-09-09T06:56:28.897Z,22.90
2022-09-09T07:00:33.092Z,23.00
2022-09-09T07:04:36.354Z,23.10
2022-09-09T07:08:40.929Z,23.20
2022-09-09T07:12:44.114Z,23.40
2022-09-09T07:16:48.724Z,23.60
2022-09-09T07:20:57.965Z,23.80
2022-09-09T07:25:03.286Z,24.00
2022-09-09T07:29:06.630Z,24.20
2022-09-09T07:33:10.910Z,24.40
2022-09-09T07:37:14.556Z,24.50
2022-09-09T07:41:50.666Z,24.50
2022-09-09T07:46:02.461Z,24.70
2022-09-09T07:50:05.909Z,24.90
2022-09-09T07:54:12.163Z,25.00
2022-09-09T07:58:18.229Z,25.10
2022-09-09T08:02:21.009Z,25.40
2022-09-09T08:06:25.956Z,25.60
2022-09-09T08:10:28.729Z,25.70
2022-09-09T08:14:32.356Z,25.90
2022-09-09T08:18:35.751Z,26.00
2022-09-09T08:22:41.118Z,26.10
2022-09-09T08:26:48.312Z,26.20
2022-09-09T08:30:54.323Z,26.30
2022-09-09T08:35:01.194Z,26.50
2022-09-09T08:39:06.566Z,26.70
2022-09-09T08:43:09.487Z,26.70
2022-09-09T08:47:48.086Z,26.80
2022-09-09T08:51:51.943Z,27.00
2022-09-09T08:56:00.497Z,27.00
2022-09-09T09:00:13.390Z,27.10
2022-09-09T09:04:52.395Z,27.30
2022-09-09T09:09:17.547Z,27.30
2022-09-09T09:13:36.323Z,27.40
2022-09-09T09:17:41.429Z,27.50
2022-09-09T09:21:49.032Z,27.70
2022-09-09T09:25:58.612Z,28.00
2022-09-09T09:30:29.482Z,28.10
2022-09-09T09:34:38.384Z,28.00
2022-09-09T09:43:35.489Z,27.70
2022-09-09T09:47:42.552Z,27.50
2022-09-09T09:51:49.047Z,27.80
2022-09-09T09:56:04.988Z,27.90
2022-09-09T10:00:18.889Z,28.10
2022-09-09T10:04:30.170Z,28.40
2022-09-09T10:08:47.484Z,28.70
2022-09-09T10:13:10.423Z,28.90
2022-09-09T10:17:36.928Z,29.10
2022-09-09T10:21:48.778Z,29.20
2022-09-09T10:26:28.978Z,29.40
2022-09-09T10:30:50.352Z,29.30
2022-09-09T10:34:58.740Z,29.50
2022-09-09T10:39:42.224Z,29.40
2022-09-09T10:44:08.102Z,29.50
2022-09-09T10:48:16.475Z,29.50
2022-09-09T10:52:28.086Z,29.50
2022-09-09T10:56:31.841Z,29.50
2022-09-09T11:00:44.237Z,29.80
2022-09-09T11:04:52.142Z,29.90
2022-09-09T11:08:57.104Z,30.10
2022-09-09T11:13:05.078Z,30.00
2022-09-09T11:17:19.169Z,30.00
2022-09-09T11:21:31.218Z,30.10
2022-09-09T11:25:37.481Z,30.20
2022-09-09T11:29:58.684Z,30.20
2022-09-09T11:34:19.974Z,30.40
2022-09-09T11:38:48.073Z,30.10
2022-09-09T11:43:01.839Z,29.90
2022-09-09T11:47:05.070Z,29.50
2022-09-09T11:51:21.625Z,29.50
2022-09-09T11:55:34.076Z,29.70
2022-09-09T11:59:36.941Z,29.80
2022-09-09T12:03:45.504Z,29.90
2022-09-09T12:07:59.727Z,30.00
2022-09-09T12:12:24.554Z,30.00
2022-09-09T12:16:39.449Z,30.30
2022-09-09T12:21:15.195Z,30.30
2022-09-09T12:25:32.762Z,30.30
2022-09-09T12:29:58.413Z,30.30
2022-09-09T12:34:15.214Z,30.30
2022-09-09T12:38:36.978Z,30.50
2022-09-09T12:42:41.863Z,30.50
2022-09-09T12:46:47.731Z,30.40
2022-09-09T12:50:51.889Z,30.40
2022-09-09T12:54:54.863Z,30.40
2022-09-09T12:58:59.335Z,30.30
2022-09-09T13:03:15.876Z,30.20
2022-09-09T13:07:20.152Z,30.20
2022-09-09T13:11:44.950Z,30.30
2022-09-09T13:15:59.725Z,30.40
2022-09-09T13:20:03.609Z,30.40
2022-09-09T13:24:21.439Z,30.40
2022-09-09T13:28:27.516Z,30.30
2022-09-09T13:32:36.630Z,30.20
2022-09-09T13:36:40.891Z,30.20
2022-09-09T13:40:56.146Z,30.20
2022-09-09T13:45:05.621Z,30.30
2022-09-09T13:49:11.527Z,30.20
2022-09-09T13:53:14.321Z,30.20
2022-09-09T13:57:24.017Z,30.10
2022-09-09T14:01:29.561Z,30.00
2022-09-09T14:05:34.887Z,29.90
2022-09-09T14:09:37.610Z,29.80
2022-09-09T14:13:40.530Z,29.80
2022-09-09T14:17:44.222Z,29.80
2022-09-09T14:21:46.948Z,29.70
2022-09-09T14:25:50.151Z,29.60
2022-09-09T14:29:53.137Z,29.60
2022-09-09T14:33:57.771Z,29.60
2022-09-09T14:38:02.122Z,29.60
2022-09-09T14:42:05.406Z,29.60
2022-09-09T14:46:16.644Z,29.60
2022-09-09T14:50:21.807Z,29.60
2022-09-09T14:54:24.753Z,29.70
2022-09-09T14:58:32.506Z,29.70
2022-09-09T15:02:35.574Z,29.80
2022-09-09T15:06:40.179Z,29.70
2022-09-09T15:10:43.590Z,29.60
2022-09-09T15:14:46.744Z,29.60
2022-09-09T15:18:54.083Z,29.50
2022-09-09T15:22:57.396Z,29.30
2022-09-09T15:27:00.852Z,29.20
2022-09-09T15:31:08.277Z,29.30
2022-09-09T15:35:11.290Z,29.10
2022-09-09T15:39:16.905Z,29.00
2022-09-09T15:43:19.626Z,29.00
2022-09-09T15:47:22.742Z,29.10
2022-09-09T15:51:43.533Z,29.00
2022-09-09T15:55:47.018Z,29.00
2022-09-09T15:59:49.876Z,29.00
2022-09-09T16:03:52.783Z,29.20
2022-09-09T16:07:55.504Z,29.20
2022-09-09T16:12:00.057Z,29.50
2022-09-09T16:16:04.280Z,29.50
2022-09-09T16:20:09.475Z,29.40
2022-09-09T16:24:19.101Z,29.30
2022-09-09T16:28:22.448Z,29.30
2022-09-09T16:32:25.309Z,29.20
2022-09-09T16:36:31.806Z,29.00
2022-09-09T16:40:38.396Z,28.90
2022-09-09T16:44:42.288Z,29.10
2022-09-09T16:48:47.204Z,29.40
2022-09-09T16:52:49.922Z,29.50
2022-09-09T16:56:52.839Z,29.80
2022-09-09T17:00:59.830Z,30.00
2022-09-09T17:05:02.680Z,29.90
2022-09-09T17:09:09.236Z,29.80
2022-09-09T17:13:13.421Z,30.00
2022-09-09T17:17:31.303Z,29.70
2022-09-09T17:21:35.290Z,29.10
2022-09-09T17:25:39.207Z,28.50
2022-09-09T17:29:42.050Z,28.00
2022-09-09T17:33:48.971Z,27.50
2022-09-09T17:37:53.356Z,27.20
2022-09-09T17:41:56.273Z,26.80
2022-09-09T17:46:17.722Z,26.50
2022-09-09T17:50:20.629Z,26.30
2022-09-09T17:54:23.944Z,26.00
2022-09-09T17:58:27.279Z,25.70
2022-09-09T18:02:30.253Z,25.50
2022-09-09T18:06:37.092Z,25.30
2022-09-09T18:10:40.579Z,25.20
2022-09-09T18:14:43.382Z,25.10
2022-09-09T18:18:47.022Z,25.00
2022-09-09T18:22:49.873Z,25.00
2022-09-09T18:26:53.460Z,24.90
2022-09-09T18:30:56.365Z,24.80
2022-09-09T18:34:59.285Z,24.80
2022-09-09T18:39:05.070Z,24.70
2022-09-09T18:43:08.585Z,24.70
2022-09-09T18:47:11.291Z,24.60
2022-09-09T18:51:16.561Z,24.50
2022-09-09T18:55:19.316Z,24.50
2022-09-09T18:59:23.983Z,24.50
2022-09-09T19:03:28.516Z,24.50
2022-09-09T19:07:31.394Z,24.50
2022-09-09T19:11:34.676Z,24.30
2022-09-09T19:15:37.716Z,24.30
2022-09-09T19:19:42.565Z,24.20
2022-09-09T19:23:54.681Z,24.10
2022-09-09T19:27:58.449Z,24.00
2022-09-09T19:32:42.746Z,23.90
2022-09-09T19:36:29.645Z,23.90
2022-09-09T19:40:35.515Z,23.80
2022-09-09T19:44:38.253Z,23.60
2022-09-09T19:48:42.380Z,23.50
2022-09-09T19:52:45.471Z,23.30
2022-09-09T19:56:48.523Z,23.20
2022-09-09T20:00:51.763Z,23.20
2022-09-09T20:04:59.380Z,23.10
2022-09-09T20:09:03.760Z,23.00
2022-09-09T20:13:07.339Z,22.90
2022-09-09T20:17:10.399Z,22.80
2022-09-09T20:21:20.905Z,22.80
2022-09-09T20:25:24.595Z,22.80
2022-09-09T20:29:27.411Z,22.80
2022-09-09T20:33:31.252Z,22.90
2022-09-09T20:37:34.028Z,22.90
2022-09-09T20:41:39.185Z,22.90
2022-09-09T20:45:43.862Z,22.80
2022-09-09T20:49:46.606Z,22.90
2022-09-09T20:53:59.334Z,23.00
2022-09-09T20:58:02.160Z,23.00
2022-09-09T21:02:05.715Z,23.00
2022-09-09T21:06:08.838Z,23.20
2022-09-09T21:10:11.852Z,23.20
2022-09-09T21:14:15.018Z,23.30
2022-09-09T21:18:19.140Z,23.40
2022-09-09T21:22:22.142Z,23.40
2022-09-09T21:26:25.549Z,23.50
2022-09-09T21:30:38.164Z,23.40
2022-09-09T21:34:43.780Z,23.40
2022-09-09T21:38:46.820Z,23.30
2022-09-09T21:42:49.894Z,23.30
2022-09-09T21:46:53.249Z,23.30
2022-09-09T21:50:56.019Z,23.30
2022-09-09T21:54:58.727Z,23.20
2022-09-09T21:59:04.244Z,23.10
2022-09-09T22:03:08.611Z,23.10
2022-09-09T22:07:11.604Z,23.10
2022-09-09T22:11:22.666Z,23.20
2022-09-09T22:15:25.597Z,23.20
2022-09-09T22:19:28.558Z,23.10
2022-09-09T22:23:31.586Z,23.20
2022-09-09T22:27:34.586Z,23.10
2022-09-09T22:31:37.391Z,23.00
2022-09-09T22:35:44.948Z,23.00
2022-09-09T22:39:48.145Z,23.00
